Overview Statistics Trail Chart Weather Telemetry Raw packets
 

This is the latest recevied packets stored in our database for station/object JG1JZL-7. If no packets are shown the sender has not sent any packets the latest 24 hours.

If you compare the raw packets with similar data from other websites it may differ (especially the path), the reason is that we are not collecting packets from the same APRS-IS servers. Each APRS-IS server performes duplicate filtering, and which packet that is considered to be a duplicate may differ depending on which APRS-IS server you receive your data from.

<< 1 2 3 4 >>

1788582139: JG1JZL-7>APLIGP,WIDE1-1,qAO,JG1JZL-10:/042212h3540.07N/14010.32E[132/000/A=000104 TXC:79 Temp: 29.70F Humid:60.20% Batt: 4.1V

1788581947: JG1JZL-7>APLIGP,WIDE1-1,qAO,JG1JZL-10:>www.catv296.ne.jp/~ja5fp/

1788581831: JG1JZL-7>APLIGP,WIDE1-1,qAO,JG1JZL-10:/041705h3540.07N/14010.32E[144/000/A=000104 TXC:78 Temp: 29.76F Humid:60.09% Batt: 4.1V

1788581524: JG1JZL-7>APLIGP,WIDE1-1,qAO,JG1JZL-10:/041158h3540.07N/14010.32E[291/000/A=000089 TXC:77 Temp: 29.84F Humid:59.84% Batt: 4.1V

1788581217: JG1JZL-7>APLIGP,WIDE1-1,qAO,JG1JZL-10:/040651h3540.07N/14010.32E[054/000/A=000092 TXC:76 Temp: 29.96F Humid:59.43% Batt: 4.1V

1788580910: JG1JZL-7>APLIGP,WIDE1-1,qAO,JG1JZL-10:/040144h3540.07N/14010.32E[222/000/A=000093 TXC:75 Temp: 30.11F Humid:58.96% Batt: 4.1V

1788580603: JG1JZL-7>APLIGP,WIDE1-1,qAO,JG1JZL-10:/035636h3540.08N/14010.32E[251/000/A=000095 TXC:74 Temp: 30.55F Humid:57.74% Batt: 4.1V

1788580295: JG1JZL-7>APLIGP,WIDE1-1,qAO,JG1JZL-10:/035129h3540.08N/14010.32E[307/000/A=000101 TXC:73 Temp: 30.89F Humid:56.73% Batt: 4.1V

1788580145: JG1JZL-7>APLIGP,WIDE1-1,qAO,JG1JZL-10:>www.catv296.ne.jp/~ja5fp/

1788579988: JG1JZL-7>APLIGP,WIDE1-1,qAO,JG1JZL-10:/034622h3540.07N/14010.32E[351/000/A=000103 TXC:72 Temp: 31.18F Humid:55.86% Batt: 4.1V

1788579681: JG1JZL-7>APLIGP,WIDE1-1,qAO,JG1JZL-10:/034115h3540.07N/14010.32E[071/000/A=000108 TXC:71 Temp: 31.56F Humid:54.67% Batt: 4.1V

1788579375: JG1JZL-7>APLIGP,WIDE1-1,qAO,JG1JZL-10:/033608h3540.07N/14010.32E[286/000/A=000104 TXC:70 Temp: 31.92F Humid:53.66% Batt: 4.1V LoRa 433M775,LightTrackerPlus1.0

1788579067: JG1JZL-7>APLIGP,WIDE1-1,qAO,JG1JZL-10:/033101h3540.08N/14010.32E[329/000/A=000111 TXC:69 Temp: 32.14F Humid:52.92% Batt: 4.1V

1788578760: JG1JZL-7>APLIGP,WIDE1-1,qAO,JG1JZL-10:/032553h3540.07N/14010.32E[077/000/A=000111 TXC:68 Temp: 32.27F Humid:52.82% Batt: 4.1V

1788578453: JG1JZL-7>APLIGP,WIDE1-1,qAO,JG1JZL-10:/032047h3540.08N/14010.32E[075/000/A=000115 TXC:67 Temp: 32.31F Humid:52.49% Batt: 4.1V

1788578342: JG1JZL-7>APLIGP,WIDE1-1,qAO,JG1JZL-10:>www.catv296.ne.jp/~ja5fp/

1788578145: JG1JZL-7>APLIGP,WIDE1-1,qAO,JG1JZL-10:/031539h3540.08N/14010.32E[195/000/A=000114 TXC:66 Temp: 32.44F Humid:52.16% Batt: 4.1V

1788577839: JG1JZL-7>APLIGP,WIDE1-1,qAO,JG1JZL-10:/031033h3540.08N/14010.32E[118/000/A=000118 TXC:65 Temp: 32.57F Humid:51.78% Batt: 4.0V

1788577533: JG1JZL-7>APLIGP,WIDE1-1,qAO,JG1JZL-10:/030527h3540.07N/14010.32E[307/000/A=000118 TXC:64 Temp: 32.00F Humid:53.25% Batt: 4.0V

1788577227: JG1JZL-7>APLIGP,WIDE1-1,qAO,JG1JZL-10:/030021h3540.07N/14010.32E[230/000/A=000118 TXC:63 Temp: 32.03F Humid:53.13% Batt: 4.0V

1788576920: JG1JZL-7>APLIGP,WIDE1-1,qAO,JG1JZL-10:/025514h3540.07N/14010.33E[244/000/A=000131 TXC:62 Temp: 32.04F Humid:53.08% Batt: 4.0V

1788576613: JG1JZL-7>APLIGP,WIDE1-1,qAO,JG1JZL-10:/025006h3540.08N/14010.32E[209/000/A=000125 TXC:61 Temp: 32.03F Humid:53.03% Batt: 4.0V

1788576540: JG1JZL-7>APLIGP,WIDE1-1,qAO,JG1JZL-10:>www.catv296.ne.jp/~ja5fp/

1788576305: JG1JZL-7>APLIGP,WIDE1-1,qAO,JG1JZL-10:/024458h3540.07N/14010.32E[190/000/A=000122 TXC:60 Temp: 31.90F Humid:53.46% Batt: 4.0V LoRa 433M775,LightTrackerPlus1.0

1788575997: JG1JZL-7>APLIGP,WIDE1-1,qAO,JG1JZL-10:/023951h3540.07N/14010.32E[018/000/A=000111 TXC:59 Temp: 32.01F Humid:53.13% Batt: 4.0V